sensor_id;sensor_type;location;lat;lon;timestamp;P1;durP1;ratioP1;P2;durP2;ratioP2
30519;SDS011;17300;50.374;8.006;2023-04-01T00:01:23;1.03;;;0.53;;
30519;SDS011;17300;50.374;8.006;2023-04-01T00:03:50;1.07;;;0.40;;
30519;SDS011;17300;50.374;8.006;2023-04-01T00:06:18;1.80;;;0.43;;
30519;SDS011;17300;50.374;8.006;2023-04-01T00:08:44;1.70;;;0.50;;
30519;SDS011;17300;50.374;8.006;2023-04-01T00:11:11;4.30;;;0.70;;
30519;SDS011;17300;50.374;8.006;2023-04-01T00:13:38;1.30;;;0.70;;
30519;SDS011;17300;50.374;8.006;2023-04-01T00:16:05;0.90;;;0.57;;
30519;SDS011;17300;50.374;8.006;2023-04-01T00:18:33;1.13;;;0.50;;
30519;SDS011;17300;50.374;8.006;2023-04-01T00:21:00;1.37;;;0.70;;
30519;SDS011;17300;50.374;8.006;2023-04-01T00:23:27;0.73;;;0.50;;
30519;SDS011;17300;50.374;8.006;2023-04-01T00:25:53;0.90;;;0.50;;
30519;SDS011;17300;50.374;8.006;2023-04-01T00:28:20;1.20;;;0.60;;
30519;SDS011;17300;50.374;8.006;2023-04-01T00:30:47;1.50;;;0.43;;
30519;SDS011;17300;50.374;8.006;2023-04-01T00:33:14;0.73;;;0.50;;
30519;SDS011;17300;50.374;8.006;2023-04-01T00:35:42;1.60;;;0.43;;
30519;SDS011;17300;50.374;8.006;2023-04-01T00:38:09;0.67;;;0.40;;
30519;SDS011;17300;50.374;8.006;2023-04-01T00:40:37;1.10;;;0.40;;
30519;SDS011;17300;50.374;8.006;2023-04-01T00:43:08;0.60;;;0.50;;
30519;SDS011;17300;50.374;8.006;2023-04-01T00:45:38;0.50;;;0.50;;
30519;SDS011;17300;50.374;8.006;2023-04-01T00:48:07;0.50;;;0.40;;
30519;SDS011;17300;50.374;8.006;2023-04-01T00:50:36;0.80;;;0.50;;
30519;SDS011;17300;50.374;8.006;2023-04-01T00:53:07;0.40;;;0.30;;
30519;SDS011;17300;50.374;8.006;2023-04-01T00:55:35;1.70;;;0.50;;
30519;SDS011;17300;50.374;8.006;2023-04-01T00:58:07;1.63;;;0.50;;
30519;SDS011;17300;50.374;8.006;2023-04-01T01:00:39;1.73;;;0.50;;
30519;SDS011;17300;50.374;8.006;2023-04-01T01:03:06;0.50;;;0.40;;
30519;SDS011;17300;50.374;8.006;2023-04-01T01:05:36;1.10;;;0.23;;
30519;SDS011;17300;50.374;8.006;2023-04-01T01:08:16;1.40;;;0.53;;
30519;SDS011;17300;50.374;8.006;2023-04-01T01:10:52;0.67;;;0.43;;
30519;SDS011;17300;50.374;8.006;2023-04-01T01:13:20;0.90;;;0.43;;
30519;SDS011;17300;50.374;8.006;2023-04-01T01:15:53;0.90;;;0.50;;
30519;SDS011;17300;50.374;8.006;2023-04-01T01:18:25;1.10;;;0.30;;
30519;SDS011;17300;50.374;8.006;2023-04-01T01:24:14;1.37;;;0.40;;
30519;SDS011;17300;50.374;8.006;2023-04-01T01:26:54;0.80;;;0.60;;
30519;SDS011;17300;50.374;8.006;2023-04-01T01:29:30;0.60;;;0.40;;
30519;SDS011;17300;50.374;8.006;2023-04-01T01:32:13;0.87;;;0.43;;
30519;SDS011;17300;50.374;8.006;2023-04-01T01:34:47;1.20;;;0.50;;
30519;SDS011;17300;50.374;8.006;2023-04-01T01:37:22;0.47;;;0.40;;
30519;SDS011;17300;50.374;8.006;2023-04-01T01:39:53;1.23;;;0.40;;
30519;SDS011;17300;50.374;8.006;2023-04-01T01:42:22;1.00;;;0.47;;
30519;SDS011;17300;50.374;8.006;2023-04-01T01:44:51;1.23;;;0.50;;
30519;SDS011;17300;50.374;8.006;2023-04-01T01:47:19;0.67;;;0.30;;
30519;SDS011;17300;50.374;8.006;2023-04-01T01:49:48;0.73;;;0.30;;
30519;SDS011;17300;50.374;8.006;2023-04-01T01:52:16;1.20;;;0.53;;
30519;SDS011;17300;50.374;8.006;2023-04-01T01:54:48;1.70;;;0.50;;
30519;SDS011;17300;50.374;8.006;2023-04-01T01:57:15;0.77;;;0.30;;
30519;SDS011;17300;50.374;8.006;2023-04-01T01:59:45;0.70;;;0.40;;
30519;SDS011;17300;50.374;8.006;2023-04-01T02:02:14;0.67;;;0.40;;
30519;SDS011;17300;50.374;8.006;2023-04-01T02:04:43;1.03;;;0.40;;
30519;SDS011;17300;50.374;8.006;2023-04-01T02:07:12;0.70;;;0.47;;
30519;SDS011;17300;50.374;8.006;2023-04-01T02:09:42;1.50;;;0.50;;
30519;SDS011;17300;50.374;8.006;2023-04-01T02:12:11;1.10;;;0.40;;
30519;SDS011;17300;50.374;8.006;2023-04-01T02:14:41;1.23;;;0.30;;
30519;SDS011;17300;50.374;8.006;2023-04-01T02:17:12;1.47;;;0.33;;
30519;SDS011;17300;50.374;8.006;2023-04-01T02:19:43;0.87;;;0.63;;
30519;SDS011;17300;50.374;8.006;2023-04-01T02:22:14;0.93;;;0.50;;
30519;SDS011;17300;50.374;8.006;2023-04-01T02:24:45;0.50;;;0.37;;
30519;SDS011;17300;50.374;8.006;2023-04-01T02:27:14;0.70;;;0.40;;
30519;SDS011;17300;50.374;8.006;2023-04-01T02:29:41;0.33;;;0.30;;
30519;SDS011;17300;50.374;8.006;2023-04-01T02:32:07;0.50;;;0.37;;
30519;SDS011;17300;50.374;8.006;2023-04-01T02:34:35;0.77;;;0.30;;
30519;SDS011;17300;50.374;8.006;2023-04-01T02:37:02;1.23;;;0.30;;
30519;SDS011;17300;50.374;8.006;2023-04-01T02:39:29;1.20;;;0.50;;
30519;SDS011;17300;50.374;8.006;2023-04-01T02:41:56;0.50;;;0.37;;
30519;SDS011;17300;50.374;8.006;2023-04-01T02:44:24;0.93;;;0.40;;
30519;SDS011;17300;50.374;8.006;2023-04-01T02:46:51;1.10;;;0.50;;
30519;SDS011;17300;50.374;8.006;2023-04-01T02:49:18;1.37;;;0.40;;
30519;SDS011;17300;50.374;8.006;2023-04-01T02:51:44;0.60;;;0.40;;
30519;SDS011;17300;50.374;8.006;2023-04-01T02:54:11;0.63;;;0.37;;
30519;SDS011;17300;50.374;8.006;2023-04-01T02:56:38;0.40;;;0.30;;
30519;SDS011;17300;50.374;8.006;2023-04-01T02:59:04;0.93;;;0.30;;
30519;SDS011;17300;50.374;8.006;2023-04-01T03:01:32;2.23;;;0.40;;
30519;SDS011;17300;50.374;8.006;2023-04-01T03:03:59;1.50;;;0.57;;
30519;SDS011;17300;50.374;8.006;2023-04-01T03:06:26;0.67;;;0.33;;
30519;SDS011;17300;50.374;8.006;2023-04-01T03:08:52;1.57;;;0.40;;
30519;SDS011;17300;50.374;8.006;2023-04-01T03:11:19;0.77;;;0.33;;
30519;SDS011;17300;50.374;8.006;2023-04-01T03:13:46;0.40;;;0.33;;
30519;SDS011;17300;50.374;8.006;2023-04-01T03:16:13;0.40;;;0.40;;
30519;SDS011;17300;50.374;8.006;2023-04-01T03:18:42;0.67;;;0.40;;
30519;SDS011;17300;50.374;8.006;2023-04-01T03:21:12;0.60;;;0.30;;
30519;SDS011;17300;50.374;8.006;2023-04-01T03:23:40;1.70;;;0.40;;
30519;SDS011;17300;50.374;8.006;2023-04-01T03:26:06;0.87;;;0.40;;
30519;SDS011;17300;50.374;8.006;2023-04-01T03:28:33;0.40;;;0.40;;
30519;SDS011;17300;50.374;8.006;2023-04-01T03:31:00;1.47;;;0.37;;
30519;SDS011;17300;50.374;8.006;2023-04-01T03:33:27;0.77;;;0.30;;
30519;SDS011;17300;50.374;8.006;2023-04-01T03:35:55;1.40;;;0.50;;
30519;SDS011;17300;50.374;8.006;2023-04-01T03:38:21;1.10;;;0.40;;
30519;SDS011;17300;50.374;8.006;2023-04-01T03:40:48;0.53;;;0.30;;
30519;SDS011;17300;50.374;8.006;2023-04-01T03:43:15;0.77;;;0.40;;
30519;SDS011;17300;50.374;8.006;2023-04-01T03:45:45;0.80;;;0.50;;
30519;SDS011;17300;50.374;8.006;2023-04-01T03:48:12;0.77;;;0.30;;
30519;SDS011;17300;50.374;8.006;2023-04-01T03:50:39;1.07;;;0.50;;
30519;SDS011;17300;50.374;8.006;2023-04-01T03:53:08;0.53;;;0.27;;
30519;SDS011;17300;50.374;8.006;2023-04-01T03:55:35;0.50;;;0.20;;
30519;SDS011;17300;50.374;8.006;2023-04-01T03:58:03;0.70;;;0.50;;
30519;SDS011;17300;50.374;8.006;2023-04-01T04:00:32;0.67;;;0.30;;
30519;SDS011;17300;50.374;8.006;2023-04-01T04:02:59;0.60;;;0.20;;
30519;SDS011;17300;50.374;8.006;2023-04-01T04:05:26;0.60;;;0.30;;
30519;SDS011;17300;50.374;8.006;2023-04-01T04:07:53;1.10;;;0.30;;
30519;SDS011;17300;50.374;8.006;2023-04-01T04:10:21;0.33;;;0.20;;
30519;SDS011;17300;50.374;8.006;2023-04-01T04:12:50;0.53;;;0.30;;
30519;SDS011;17300;50.374;8.006;2023-04-01T04:15:17;0.50;;;0.30;;
30519;SDS011;17300;50.374;8.006;2023-04-01T04:17:44;0.97;;;0.37;;
30519;SDS011;17300;50.374;8.006;2023-04-01T04:20:11;0.97;;;0.30;;
30519;SDS011;17300;50.374;8.006;2023-04-01T04:22:38;1.47;;;0.30;;
30519;SDS011;17300;50.374;8.006;2023-04-01T04:25:05;0.40;;;0.30;;
30519;SDS011;17300;50.374;8.006;2023-04-01T04:27:34;0.70;;;0.30;;
30519;SDS011;17300;50.374;8.006;2023-04-01T04:30:01;0.77;;;0.30;;
30519;SDS011;17300;50.374;8.006;2023-04-01T04:32:28;0.43;;;0.20;;
30519;SDS011;17300;50.374;8.006;2023-04-01T04:34:54;0.80;;;0.30;;
30519;SDS011;17300;50.374;8.006;2023-04-01T04:37:21;0.30;;;0.27;;
30519;SDS011;17300;50.374;8.006;2023-04-01T04:39:48;0.73;;;0.20;;
30519;SDS011;17300;50.374;8.006;2023-04-01T04:42:14;0.13;;;0.13;;
30519;SDS011;17300;50.374;8.006;2023-04-01T04:44:42;0.83;;;0.40;;
30519;SDS011;17300;50.374;8.006;2023-04-01T04:47:09;0.43;;;0.20;;
30519;SDS011;17300;50.374;8.006;2023-04-01T04:49:35;0.73;;;0.20;;
30519;SDS011;17300;50.374;8.006;2023-04-01T04:52:02;0.10;;;0.10;;
30519;SDS011;17300;50.374;8.006;2023-04-01T04:54:29;0.23;;;0.10;;
30519;SDS011;17300;50.374;8.006;2023-04-01T04:56:55;1.03;;;0.30;;
30519;SDS011;17300;50.374;8.006;2023-04-01T04:59:22;0.43;;;0.23;;
30519;SDS011;17300;50.374;8.006;2023-04-01T05:01:50;0.83;;;0.50;;
30519;SDS011;17300;50.374;8.006;2023-04-01T05:04:17;0.70;;;0.30;;
30519;SDS011;17300;50.374;8.006;2023-04-01T05:06:43;1.60;;;0.50;;
30519;SDS011;17300;50.374;8.006;2023-04-01T05:09:10;0.20;;;0.20;;
30519;SDS011;17300;50.374;8.006;2023-04-01T05:11:37;0.40;;;0.20;;
30519;SDS011;17300;50.374;8.006;2023-04-01T05:14:03;0.63;;;0.30;;
30519;SDS011;17300;50.374;8.006;2023-04-01T05:16:30;0.67;;;0.20;;
30519;SDS011;17300;50.374;8.006;2023-04-01T05:18:58;0.20;;;0.20;;
30519;SDS011;17300;50.374;8.006;2023-04-01T05:21:25;0.37;;;0.30;;
30519;SDS011;17300;50.374;8.006;2023-04-01T05:23:51;0.60;;;0.30;;
30519;SDS011;17300;50.374;8.006;2023-04-01T05:26:18;0.20;;;0.20;;
30519;SDS011;17300;50.374;8.006;2023-04-01T05:28:45;0.50;;;0.30;;
30519;SDS011;17300;50.374;8.006;2023-04-01T05:31:11;0.60;;;0.20;;
30519;SDS011;17300;50.374;8.006;2023-04-01T05:33:38;0.20;;;0.20;;
30519;SDS011;17300;50.374;8.006;2023-04-01T05:36:07;0.33;;;0.20;;
30519;SDS011;17300;50.374;8.006;2023-04-01T05:38:35;0.40;;;0.40;;
30519;SDS011;17300;50.374;8.006;2023-04-01T05:41:02;0.23;;;0.20;;
30519;SDS011;17300;50.374;8.006;2023-04-01T05:43:29;1.03;;;0.37;;
30519;SDS011;17300;50.374;8.006;2023-04-01T05:45:56;0.20;;;0.20;;
30519;SDS011;17300;50.374;8.006;2023-04-01T05:48:23;0.50;;;0.30;;
30519;SDS011;17300;50.374;8.006;2023-04-01T05:50:49;0.73;;;0.20;;
30519;SDS011;17300;50.374;8.006;2023-04-01T05:53:17;0.47;;;0.20;;
30519;SDS011;17300;50.374;8.006;2023-04-01T05:55:44;0.30;;;0.30;;
30519;SDS011;17300;50.374;8.006;2023-04-01T05:58:11;0.23;;;0.20;;
30519;SDS011;17300;50.374;8.006;2023-04-01T06:00:37;0.20;;;0.20;;
30519;SDS011;17300;50.374;8.006;2023-04-01T06:03:04;0.27;;;0.20;;
30519;SDS011;17300;50.374;8.006;2023-04-01T06:05:35;0.20;;;0.20;;
30519;SDS011;17300;50.374;8.006;2023-04-01T06:08:05;0.13;;;0.10;;
30519;SDS011;17300;50.374;8.006;2023-04-01T06:10:41;0.40;;;0.30;;
30519;SDS011;17300;50.374;8.006;2023-04-01T06:13:18;0.40;;;0.20;;
30519;SDS011;17300;50.374;8.006;2023-04-01T06:15:51;0.87;;;0.30;;
30519;SDS011;17300;50.374;8.006;2023-04-01T06:18:31;0.20;;;0.20;;
30519;SDS011;17300;50.374;8.006;2023-04-01T06:21:12;0.40;;;0.30;;
30519;SDS011;17300;50.374;8.006;2023-04-01T06:23:56;0.80;;;0.20;;
30519;SDS011;17300;50.374;8.006;2023-04-01T06:26:32;0.40;;;0.10;;
30519;SDS011;17300;50.374;8.006;2023-04-01T06:29:16;0.37;;;0.20;;
30519;SDS011;17300;50.374;8.006;2023-04-01T06:32:03;0.43;;;0.13;;
30519;SDS011;17300;50.374;8.006;2023-04-01T06:34:42;0.20;;;0.17;;
30519;SDS011;17300;50.374;8.006;2023-04-01T06:37:20;0.10;;;0.10;;
30519;SDS011;17300;50.374;8.006;2023-04-01T06:40:16;0.23;;;0.13;;
30519;SDS011;17300;50.374;8.006;2023-04-01T06:43:02;0.30;;;0.20;;
30519;SDS011;17300;50.374;8.006;2023-04-01T06:45:36;0.10;;;0.10;;
30519;SDS011;17300;50.374;8.006;2023-04-01T06:48:11;0.97;;;0.20;;
30519;SDS011;17300;50.374;8.006;2023-04-01T06:50:52;0.20;;;0.20;;
30519;SDS011;17300;50.374;8.006;2023-04-01T06:53:24;0.40;;;0.40;;
30519;SDS011;17300;50.374;8.006;2023-04-01T06:55:55;0.47;;;0.30;;
30519;SDS011;17300;50.374;8.006;2023-04-01T06:58:29;0.20;;;0.20;;
30519;SDS011;17300;50.374;8.006;2023-04-01T07:01:02;0.47;;;0.13;;
30519;SDS011;17300;50.374;8.006;2023-04-01T07:03:32;0.30;;;0.30;;
30519;SDS011;17300;50.374;8.006;2023-04-01T07:06:02;0.40;;;0.30;;
30519;SDS011;17300;50.374;8.006;2023-04-01T07:08:31;0.33;;;0.27;;
30519;SDS011;17300;50.374;8.006;2023-04-01T07:11:03;0.23;;;0.20;;
30519;SDS011;17300;50.374;8.006;2023-04-01T07:13:32;0.50;;;0.10;;
30519;SDS011;17300;50.374;8.006;2023-04-01T07:16:07;0.13;;;0.10;;
30519;SDS011;17300;50.374;8.006;2023-04-01T07:18:40;0.40;;;0.17;;
30519;SDS011;17300;50.374;8.006;2023-04-01T07:21:12;0.30;;;0.30;;
30519;SDS011;17300;50.374;8.006;2023-04-01T07:23:48;0.10;;;0.10;;
30519;SDS011;17300;50.374;8.006;2023-04-01T07:26:17;0.10;;;0.10;;
30519;SDS011;17300;50.374;8.006;2023-04-01T07:28:47;0.20;;;0.20;;
30519;SDS011;17300;50.374;8.006;2023-04-01T07:31:17;0.37;;;0.20;;
30519;SDS011;17300;50.374;8.006;2023-04-01T07:33:54;0.20;;;0.20;;
30519;SDS011;17300;50.374;8.006;2023-04-01T07:36:31;0.10;;;0.10;;
30519;SDS011;17300;50.374;8.006;2023-04-01T07:39:07;0.97;;;0.30;;
30519;SDS011;17300;50.374;8.006;2023-04-01T07:41:45;0.00;;;0.00;;
30519;SDS011;17300;50.374;8.006;2023-04-01T07:44:21;0.40;;;0.20;;
30519;SDS011;17300;50.374;8.006;2023-04-01T07:46:56;0.07;;;0.07;;
30519;SDS011;17300;50.374;8.006;2023-04-01T07:49:31;0.40;;;0.17;;
30519;SDS011;17300;50.374;8.006;2023-04-01T07:52:08;0.17;;;0.10;;
30519;SDS011;17300;50.374;8.006;2023-04-01T07:54:44;0.20;;;0.17;;
30519;SDS011;17300;50.374;8.006;2023-04-01T07:57:17;0.30;;;0.30;;
30519;SDS011;17300;50.374;8.006;2023-04-01T07:59:51;0.23;;;0.20;;
30519;SDS011;17300;50.374;8.006;2023-04-01T08:02:28;0.10;;;0.10;;
30519;SDS011;17300;50.374;8.006;2023-04-01T08:05:12;3.80;;;0.40;;
30519;SDS011;17300;50.374;8.006;2023-04-01T08:07:45;1.53;;;1.43;;
30519;SDS011;17300;50.374;8.006;2023-04-01T08:10:21;1.00;;;0.73;;
30519;SDS011;17300;50.374;8.006;2023-04-01T08:12:56;0.47;;;0.43;;
30519;SDS011;17300;50.374;8.006;2023-04-01T08:15:31;0.20;;;0.20;;
30519;SDS011;17300;50.374;8.006;2023-04-01T08:18:04;0.20;;;0.20;;
30519;SDS011;17300;50.374;8.006;2023-04-01T08:20:37;0.37;;;0.27;;
30519;SDS011;17300;50.374;8.006;2023-04-01T08:23:11;8.77;;;3.00;;
30519;SDS011;17300;50.374;8.006;2023-04-01T08:25:40;1.43;;;1.30;;
30519;SDS011;17300;50.374;8.006;2023-04-01T08:28:15;1.00;;;0.90;;
30519;SDS011;17300;50.374;8.006;2023-04-01T08:30:48;1.07;;;0.60;;
30519;SDS011;17300;50.374;8.006;2023-04-01T08:33:19;0.37;;;0.37;;
30519;SDS011;17300;50.374;8.006;2023-04-01T08:36:05;0.30;;;0.30;;
30519;SDS011;17300;50.374;8.006;2023-04-01T08:38:38;0.27;;;0.27;;
30519;SDS011;17300;50.374;8.006;2023-04-01T08:41:14;0.47;;;0.20;;
30519;SDS011;17300;50.374;8.006;2023-04-01T08:44:16;0.87;;;0.20;;
30519;SDS011;17300;50.374;8.006;2023-04-01T08:46:59;0.40;;;0.20;;
30519;SDS011;17300;50.374;8.006;2023-04-01T08:49:54;0.17;;;0.00;;
30519;SDS011;17300;50.374;8.006;2023-04-01T08:52:42;0.20;;;0.10;;
30519;SDS011;17300;50.374;8.006;2023-04-01T08:55:25;0.10;;;0.10;;
30519;SDS011;17300;50.374;8.006;2023-04-01T08:58:11;0.03;;;0.03;;
30519;SDS011;17300;50.374;8.006;2023-04-01T09:01:11;0.10;;;0.10;;
30519;SDS011;17300;50.374;8.006;2023-04-01T09:04:03;0.17;;;0.10;;
30519;SDS011;17300;50.374;8.006;2023-04-01T09:06:47;0.10;;;0.10;;
30519;SDS011;17300;50.374;8.006;2023-04-01T09:12:45;0.20;;;0.20;;
30519;SDS011;17300;50.374;8.006;2023-04-01T09:18:23;0.20;;;0.20;;
30519;SDS011;17300;50.374;8.006;2023-04-01T09:21:11;0.40;;;0.40;;
30519;SDS011;17300;50.374;8.006;2023-04-01T09:23:59;0.30;;;0.30;;
30519;SDS011;17300;50.374;8.006;2023-04-01T09:26:48;0.20;;;0.20;;
30519;SDS011;17300;50.374;8.006;2023-04-01T09:29:29;0.30;;;0.20;;
30519;SDS011;17300;50.374;8.006;2023-04-01T09:35:30;0.10;;;0.10;;
30519;SDS011;17300;50.374;8.006;2023-04-01T09:38:11;0.20;;;0.20;;
30519;SDS011;17300;50.374;8.006;2023-04-01T09:40:47;0.10;;;0.10;;
30519;SDS011;17300;50.374;8.006;2023-04-01T09:43:30;0.20;;;0.20;;
30519;SDS011;17300;50.374;8.006;2023-04-01T09:46:30;0.17;;;0.17;;
30519;SDS011;17300;50.374;8.006;2023-04-01T09:49:13;0.20;;;0.17;;
30519;SDS011;17300;50.374;8.006;2023-04-01T09:52:05;0.13;;;0.13;;
30519;SDS011;17300;50.374;8.006;2023-04-01T09:54:51;0.20;;;0.20;;
30519;SDS011;17300;50.374;8.006;2023-04-01T09:57:47;0.07;;;0.07;;
30519;SDS011;17300;50.374;8.006;2023-04-01T10:01:01;0.10;;;0.10;;
30519;SDS011;17300;50.374;8.006;2023-04-01T10:10:48;0.20;;;0.20;;
30519;SDS011;17300;50.374;8.006;2023-04-01T10:13:42;0.20;;;0.20;;
30519;SDS011;17300;50.374;8.006;2023-04-01T10:16:43;0.13;;;0.13;;
30519;SDS011;17300;50.374;8.006;2023-04-01T10:25:34;0.20;;;0.20;;
30519;SDS011;17300;50.374;8.006;2023-04-01T10:28:40;0.20;;;0.20;;
30519;SDS011;17300;50.374;8.006;2023-04-01T10:31:44;0.20;;;0.20;;
30519;SDS011;17300;50.374;8.006;2023-04-01T10:51:49;0.20;;;0.20;;
30519;SDS011;17300;50.374;8.006;2023-04-01T11:15:10;0.67;;;0.33;;
30519;SDS011;17300;50.374;8.006;2023-04-01T11:18:28;0.23;;;0.23;;
30519;SDS011;17300;50.374;8.006;2023-04-01T11:42:11;0.30;;;0.30;;
30519;SDS011;17300;50.374;8.006;2023-04-01T11:45:07;0.30;;;0.30;;
30519;SDS011;17300;50.374;8.006;2023-04-01T11:48:35;0.77;;;0.40;;
30519;SDS011;17300;50.374;8.006;2023-04-01T11:51:50;0.63;;;0.40;;
30519;SDS011;17300;50.374;8.006;2023-04-01T11:54:40;0.20;;;0.20;;
30519;SDS011;17300;50.374;8.006;2023-04-01T11:57:38;0.33;;;0.33;;
30519;SDS011;17300;50.374;8.006;2023-04-01T12:00:30;0.30;;;0.30;;
30519;SDS011;17300;50.374;8.006;2023-04-01T12:03:21;0.30;;;0.30;;
30519;SDS011;17300;50.374;8.006;2023-04-01T12:06:03;0.33;;;0.33;;
30519;SDS011;17300;50.374;8.006;2023-04-01T12:08:38;0.30;;;0.30;;
30519;SDS011;17300;50.374;8.006;2023-04-01T12:11:12;0.20;;;0.20;;
30519;SDS011;17300;50.374;8.006;2023-04-01T12:13:48;0.40;;;0.37;;
30519;SDS011;17300;50.374;8.006;2023-04-01T12:16:34;0.30;;;0.30;;
30519;SDS011;17300;50.374;8.006;2023-04-01T12:19:12;0.37;;;0.37;;
30519;SDS011;17300;50.374;8.006;2023-04-01T12:21:49;0.40;;;0.30;;
30519;SDS011;17300;50.374;8.006;2023-04-01T12:27:20;0.20;;;0.20;;
30519;SDS011;17300;50.374;8.006;2023-04-01T12:30:02;0.20;;;0.20;;
30519;SDS011;17300;50.374;8.006;2023-04-01T12:32:49;0.30;;;0.30;;
30519;SDS011;17300;50.374;8.006;2023-04-01T12:35:24;0.40;;;0.40;;
30519;SDS011;17300;50.374;8.006;2023-04-01T12:37:55;0.20;;;0.20;;
30519;SDS011;17300;50.374;8.006;2023-04-01T12:40:45;0.43;;;0.40;;
30519;SDS011;17300;50.374;8.006;2023-04-01T12:43:29;0.37;;;0.37;;
30519;SDS011;17300;50.374;8.006;2023-04-01T12:46:18;0.40;;;0.40;;
30519;SDS011;17300;50.374;8.006;2023-04-01T12:48:57;0.30;;;0.30;;
30519;SDS011;17300;50.374;8.006;2023-04-01T12:51:47;0.50;;;0.30;;
30519;SDS011;17300;50.374;8.006;2023-04-01T12:54:31;0.47;;;0.47;;
30519;SDS011;17300;50.374;8.006;2023-04-01T12:57:34;0.30;;;0.30;;
30519;SDS011;17300;50.374;8.006;2023-04-01T13:00:27;0.30;;;0.30;;
30519;SDS011;17300;50.374;8.006;2023-04-01T13:03:11;0.33;;;0.27;;
30519;SDS011;17300;50.374;8.006;2023-04-01T13:08:57;0.20;;;0.20;;
30519;SDS011;17300;50.374;8.006;2023-04-01T13:11:36;0.40;;;0.40;;
30519;SDS011;17300;50.374;8.006;2023-04-01T13:17:11;0.30;;;0.30;;
30519;SDS011;17300;50.374;8.006;2023-04-01T13:19:47;0.30;;;0.30;;
30519;SDS011;17300;50.374;8.006;2023-04-01T13:22:19;0.30;;;0.30;;
30519;SDS011;17300;50.374;8.006;2023-04-01T13:24:51;0.30;;;0.30;;
30519;SDS011;17300;50.374;8.006;2023-04-01T13:27:30;0.40;;;0.40;;
30519;SDS011;17300;50.374;8.006;2023-04-01T13:30:03;0.30;;;0.30;;
30519;SDS011;17300;50.374;8.006;2023-04-01T13:32:47;0.53;;;0.30;;
30519;SDS011;17300;50.374;8.006;2023-04-01T13:35:28;0.30;;;0.30;;
30519;SDS011;17300;50.374;8.006;2023-04-01T13:38:08;0.20;;;0.20;;
30519;SDS011;17300;50.374;8.006;2023-04-01T13:40:49;0.40;;;0.40;;
30519;SDS011;17300;50.374;8.006;2023-04-01T13:43:20;0.30;;;0.30;;
30519;SDS011;17300;50.374;8.006;2023-04-01T13:45:57;0.40;;;0.40;;
30519;SDS011;17300;50.374;8.006;2023-04-01T13:48:37;0.40;;;0.40;;
30519;SDS011;17300;50.374;8.006;2023-04-01T13:54:18;0.40;;;0.40;;
30519;SDS011;17300;50.374;8.006;2023-04-01T13:57:07;0.40;;;0.40;;
30519;SDS011;17300;50.374;8.006;2023-04-01T13:59:56;0.30;;;0.30;;
30519;SDS011;17300;50.374;8.006;2023-04-01T14:02:58;0.40;;;0.40;;
30519;SDS011;17300;50.374;8.006;2023-04-01T14:05:47;0.30;;;0.30;;
30519;SDS011;17300;50.374;8.006;2023-04-01T14:08:29;0.33;;;0.30;;
30519;SDS011;17300;50.374;8.006;2023-04-01T14:11:11;0.30;;;0.30;;
30519;SDS011;17300;50.374;8.006;2023-04-01T14:13:48;0.70;;;0.50;;
30519;SDS011;17300;50.374;8.006;2023-04-01T14:16:29;0.23;;;0.23;;
30519;SDS011;17300;50.374;8.006;2023-04-01T14:19:12;0.30;;;0.30;;
30519;SDS011;17300;50.374;8.006;2023-04-01T14:21:53;0.40;;;0.40;;
30519;SDS011;17300;50.374;8.006;2023-04-01T14:24:35;0.40;;;0.40;;
30519;SDS011;17300;50.374;8.006;2023-04-01T14:27:16;1.07;;;0.70;;
30519;SDS011;17300;50.374;8.006;2023-04-01T14:29:58;1.43;;;1.30;;
30519;SDS011;17300;50.374;8.006;2023-04-01T14:32:34;1.57;;;1.47;;
30519;SDS011;17300;50.374;8.006;2023-04-01T14:35:14;0.83;;;0.83;;
30519;SDS011;17300;50.374;8.006;2023-04-01T14:37:57;0.60;;;0.60;;
30519;SDS011;17300;50.374;8.006;2023-04-01T14:40:35;0.60;;;0.50;;
30519;SDS011;17300;50.374;8.006;2023-04-01T14:43:27;0.53;;;0.53;;
30519;SDS011;17300;50.374;8.006;2023-04-01T14:46:11;0.87;;;0.80;;
30519;SDS011;17300;50.374;8.006;2023-04-01T14:48:51;0.70;;;0.70;;
30519;SDS011;17300;50.374;8.006;2023-04-01T14:51:22;0.47;;;0.47;;
30519;SDS011;17300;50.374;8.006;2023-04-01T14:53:58;0.63;;;0.60;;
30519;SDS011;17300;50.374;8.006;2023-04-01T14:56:41;0.43;;;0.43;;
30519;SDS011;17300;50.374;8.006;2023-04-01T14:59:10;0.50;;;0.50;;
30519;SDS011;17300;50.374;8.006;2023-04-01T15:01:46;0.60;;;0.60;;
30519;SDS011;17300;50.374;8.006;2023-04-01T15:10:12;0.80;;;0.60;;
30519;SDS011;17300;50.374;8.006;2023-04-01T15:12:58;0.60;;;0.60;;
30519;SDS011;17300;50.374;8.006;2023-04-01T15:15:35;2.10;;;1.90;;
30519;SDS011;17300;50.374;8.006;2023-04-01T15:18:08;1.80;;;1.57;;
30519;SDS011;17300;50.374;8.006;2023-04-01T15:20:45;1.50;;;1.40;;
30519;SDS011;17300;50.374;8.006;2023-04-01T15:23:27;1.57;;;1.17;;
30519;SDS011;17300;50.374;8.006;2023-04-01T15:26:15;0.90;;;0.90;;
30519;SDS011;17300;50.374;8.006;2023-04-01T15:28:52;0.90;;;0.70;;
30519;SDS011;17300;50.374;8.006;2023-04-01T15:31:32;3.87;;;3.10;;
30519;SDS011;17300;50.374;8.006;2023-04-01T15:34:11;4.50;;;3.80;;
30519;SDS011;17300;50.374;8.006;2023-04-01T15:36:49;5.47;;;4.37;;
30519;SDS011;17300;50.374;8.006;2023-04-01T15:39:23;3.77;;;3.00;;
30519;SDS011;17300;50.374;8.006;2023-04-01T15:42:03;2.47;;;1.90;;
30519;SDS011;17300;50.374;8.006;2023-04-01T15:44:50;5.67;;;4.50;;
30519;SDS011;17300;50.374;8.006;2023-04-01T15:47:28;5.47;;;4.60;;
30519;SDS011;17300;50.374;8.006;2023-04-01T15:53:01;2.70;;;2.33;;
30519;SDS011;17300;50.374;8.006;2023-04-01T15:55:37;2.27;;;1.73;;
30519;SDS011;17300;50.374;8.006;2023-04-01T15:58:17;1.93;;;1.67;;
30519;SDS011;17300;50.374;8.006;2023-04-01T16:00:56;1.30;;;1.20;;
30519;SDS011;17300;50.374;8.006;2023-04-01T16:03:36;1.07;;;0.97;;
30519;SDS011;17300;50.374;8.006;2023-04-01T16:06:10;0.63;;;0.63;;
30519;SDS011;17300;50.374;8.006;2023-04-01T16:11:37;0.60;;;0.60;;
30519;SDS011;17300;50.374;8.006;2023-04-01T16:14:15;1.37;;;1.27;;
30519;SDS011;17300;50.374;8.006;2023-04-01T16:16:53;8.57;;;7.43;;
30519;SDS011;17300;50.374;8.006;2023-04-01T16:19:33;6.83;;;5.87;;
30519;SDS011;17300;50.374;8.006;2023-04-01T16:22:07;4.00;;;3.43;;
30519;SDS011;17300;50.374;8.006;2023-04-01T16:24:40;1.83;;;1.67;;
30519;SDS011;17300;50.374;8.006;2023-04-01T16:27:13;1.23;;;1.13;;
30519;SDS011;17300;50.374;8.006;2023-04-01T16:29:46;0.73;;;0.73;;
30519;SDS011;17300;50.374;8.006;2023-04-01T16:32:22;0.80;;;0.60;;
30519;SDS011;17300;50.374;8.006;2023-04-01T16:35:10;0.50;;;0.50;;
30519;SDS011;17300;50.374;8.006;2023-04-01T16:37:47;0.63;;;0.40;;
30519;SDS011;17300;50.374;8.006;2023-04-01T16:40:22;0.50;;;0.50;;
30519;SDS011;17300;50.374;8.006;2023-04-01T16:43:04;0.50;;;0.50;;
30519;SDS011;17300;50.374;8.006;2023-04-01T16:45:37;1.03;;;0.70;;
30519;SDS011;17300;50.374;8.006;2023-04-01T16:48:12;0.60;;;0.60;;
30519;SDS011;17300;50.374;8.006;2023-04-01T16:50:42;1.10;;;0.73;;
30519;SDS011;17300;50.374;8.006;2023-04-01T16:53:16;0.80;;;0.80;;
30519;SDS011;17300;50.374;8.006;2023-04-01T16:55:46;0.60;;;0.60;;
30519;SDS011;17300;50.374;8.006;2023-04-01T16:58:18;0.57;;;0.57;;
30519;SDS011;17300;50.374;8.006;2023-04-01T17:00:49;0.63;;;0.63;;
30519;SDS011;17300;50.374;8.006;2023-04-01T17:03:22;0.70;;;0.70;;
30519;SDS011;17300;50.374;8.006;2023-04-01T17:05:56;0.50;;;0.50;;
30519;SDS011;17300;50.374;8.006;2023-04-01T17:08:37;0.70;;;0.70;;
30519;SDS011;17300;50.374;8.006;2023-04-01T17:11:21;0.60;;;0.60;;
30519;SDS011;17300;50.374;8.006;2023-04-01T17:13:52;0.50;;;0.50;;
30519;SDS011;17300;50.374;8.006;2023-04-01T17:19:38;0.40;;;0.40;;
30519;SDS011;17300;50.374;8.006;2023-04-01T17:22:15;0.50;;;0.50;;
30519;SDS011;17300;50.374;8.006;2023-04-01T17:24:58;0.57;;;0.57;;
30519;SDS011;17300;50.374;8.006;2023-04-01T17:27:37;1.50;;;0.70;;
30519;SDS011;17300;50.374;8.006;2023-04-01T17:30:17;2.00;;;0.70;;